Tabb, VA (23693)

2:06 PM EST on February 01, 2015 (GMT -0500)
Coventry | Change Station
CLOSE
Current Station
Personal Weather Station
Location: Yorktown, VA
Elevation: 39 ft
Nearby Weather Stations

Elev 39 ft 37.11 °N, 76.45 °W | Updated 14 minutes ago

Partly Cloudy
Partly Cloudy
45.1 °F
Feels Like 45 °F
N
2.0
Wind Variable Wind from ESE
Gusts 4.0 mph

Today
High -- | Low -- °F
--% Chance of Precip.
Yesterday
High -- | Low -- °F
Precip. -- in
7:08 AM 5:30 PM
Waxing Gibbous, 96% visible
Pressure 30.18 in
Visibility 10.0 miles
Clouds Few 11000 ft
Windchill 45 °F
Dew Point 30 °F
Humidity 55%
Rainfall 0.00 in
Snow Depth Not available.
UV 3 out of 12
Pollen 2.10 out of 12
Air Quality Not available.
Flu Activity Not available.
METAR KPHF 011854Z 15005KT 10SM FEW110 09/M04 A3018 RMK AO2 SLP218 T00891039

More Conditions Fewer Conditions

Pressure 30.18 in
Visibility 10.0 miles
Clouds Few 11000 ft
Windchill 45 °F
Dew Point 30 °F
Humidity 55%
Rainfall 0.00 in
Snow Depth Not available.
UV 3 out of 12
Pollen 2.10 out of 12
Air Quality Not available.
Flu Activity Not available.
METAR KPHF 011854Z 15005KT 10SM FEW110 09/M04 A3018 RMK AO2 SLP218 T00891039

More Conditions Fewer Conditions

10-Day Weather Forecast

Almanac

Astronomy

Feb. 01, 2015 Rise Set
Actual Time
Civil Twilight
Nautical Twilight
Astronomical Twilight
Moon
Length of Visible Light
Length of Day
Tomorrow will be .
, % of the Moon is Illuminated

Today's Extremes

State Highs State Lows

Community

WunderPhotos

Upload Photos

1,792,448 photos uploaded!

WunderBlogs® & News

Nearby

Air Quality

  Air Quality AQ Index Pollutant
Not available.

Snow Depth

Station Depth Elevation

Earthquake Activity

City Distance Mag. Time & Date
Minimum magnitude displayed is 2.5.

Coastal Water Temperatures

Place Temperature

Nearby Weather Stations